Terminal Aerodrome Forecast
Issued by NWS Twin Cities, MN

Home | Current Version | Previous Version | Graphics & Text | Print | Product List | Glossary On
Versions: 1 2 3 4 5 6 7 8 9 10 11 12 13 14 15 16 17
000
FTUS43 KMPX 052340
TAFEAU
TAF
KEAU 052340Z 0600/0624 18013G21KT P6SM BKN045 BKN150
     FM060300 16012KT P6SM SCT050 BKN150
     FM060800 15012KT 5SM -SHRA OVC045
      TEMPO 0609/0613 2SM TSRA BKN015CB OVC035
     FM061300 15008KT 3SM SHRA BR VCTS BKN012CB OVC025
     FM061600 17008KT 5SM SHRA SCT010 OVC018
     FM062100 35012G20KT P6SM SCT020 BKN035=

USA.gov is the U.S. government's official web portal to all federal, state and local government web resources and services.